Time;durP1;ratioP1;P1;durP2;ratioP2;P2;SDS_P1;SDS_P2;PMS_P1;PMS_P2;Temp;Humidity;BMP_temperature;BMP_pressure;BME280_temperature;BME280_humidity;BME280_pressure;Samples;Min_cycle;Max_cycle;Signal;HPM_P1;HPM_P2
2022/04/28 00:00:19;;;;;;;13.93;9.23;;;8.70;99.90;;;;;;5243482;28;20270;-52
2022/04/28 00:02:50;;;;;;;16.53;9.37;;;8.70;99.90;;;;;;5242152;28;20211;-54
2022/04/28 00:05:22;;;;;;;21.33;10.43;;;8.70;99.90;;;;;;5245899;28;20202;-55
2022/04/28 00:07:53;;;;;;;12.13;9.03;;;8.70;99.90;;;;;;5242797;28;20424;-52
2022/04/28 00:10:24;;;;;;;12.03;8.77;;;8.80;99.90;;;;;;5243468;28;20796;-54
2022/04/28 00:12:55;;;;;;;11.43;8.83;;;8.80;99.90;;;;;;5243927;28;20782;-53
2022/04/28 00:15:25;;;;;;;10.40;9.03;;;8.90;99.90;;;;;;5240232;28;20166;-53
2022/04/28 00:17:56;;;;;;;10.27;8.10;;;9.00;99.90;;;;;;5245386;28;20433;-54
2022/04/28 00:20:27;;;;;;;14.40;8.87;;;9.10;99.90;;;;;;5241705;28;20189;-54
2022/04/28 00:22:59;;;;;;;14.07;10.00;;;9.10;99.90;;;;;;5243220;28;20464;-53
2022/04/28 00:25:29;;;;;;;15.30;10.20;;;9.10;99.90;;;;;;5241184;28;20582;-55
2022/04/28 00:28:00;;;;;;;13.77;9.40;;;9.10;99.90;;;;;;5244993;28;20466;-53
2022/04/28 00:30:30;;;;;;;21.00;8.50;;;9.00;99.90;;;;;;5242019;28;20266;-56
2022/04/28 00:33:01;;;;;;;9.50;8.10;;;9.00;99.90;;;;;;5243187;28;20233;-54
2022/04/28 00:35:32;;;;;;;10.47;8.20;;;9.00;99.90;;;;;;5241719;28;20224;-52
2022/04/28 00:38:02;;;;;;;10.47;8.50;;;8.90;99.90;;;;;;5246834;28;20458;-54
2022/04/28 00:40:33;;;;;;;15.87;8.40;;;8.90;99.90;;;;;;5247954;28;20190;-55
2022/04/28 00:43:18;;;;;;;12.77;8.90;;;8.80;99.90;;;;;;5249634;28;20241;-55
2022/04/28 00:45:50;;;;;;;11.50;8.63;;;8.80;99.90;;;;;;5251625;28;20198;-54
2022/04/28 00:51:12;;;;;;;13.70;9.40;;;8.80;99.90;;;;;;5249260;28;20456;-55
2022/04/28 00:53:49;;;;;;;11.53;8.60;;;8.70;99.90;;;;;;5242489;28;20921;-53
2022/04/28 00:56:19;;;;;;;12.80;9.73;;;8.60;99.90;;;;;;5239615;28;20466;-53
2022/04/28 00:58:50;;;;;;;13.67;9.07;;;8.60;99.90;;;;;;5248731;28;20806;-53
2022/04/28 01:01:21;;;;;;;15.57;9.70;;;8.60;99.90;;;;;;5238528;28;20182;-53
2022/04/28 01:03:51;;;;;;;18.20;9.10;;;8.60;99.90;;;;;;5244772;28;20190;-54
2022/04/28 01:06:22;;;;;;;12.10;8.30;;;8.60;99.90;;;;;;5241860;28;20562;-54
2022/04/28 01:08:55;;;;;;;11.67;7.80;;;8.50;99.90;;;;;;5244763;28;20234;-55
2022/04/28 01:11:27;;;;;;;11.70;7.57;;;8.50;99.90;;;;;;5250354;28;20661;-52
2022/04/28 01:13:57;;;;;;;12.07;7.90;;;8.40;99.90;;;;;;5250656;28;20515;-54
2022/04/28 01:16:28;;;;;;;12.03;8.03;;;8.40;99.90;;;;;;5248392;28;20507;-54
2022/04/28 01:18:59;;;;;;;12.83;8.67;;;8.30;99.90;;;;;;5248362;28;20673;-54
2022/04/28 01:21:30;;;;;;;19.33;9.53;;;8.30;99.90;;;;;;5249886;28;20394;-53
2022/04/28 01:24:02;;;;;;;9.57;7.63;;;8.20;99.90;;;;;;5263995;28;20229;-54
2022/04/28 01:26:34;;;;;;;10.07;7.53;;;8.20;99.90;;;;;;5255978;28;20460;-54
2022/04/28 01:29:05;;;;;;;14.17;8.27;;;8.10;99.90;;;;;;5250541;28;20500;-53
2022/04/28 01:31:35;;;;;;;14.67;8.80;;;8.10;99.90;;;;;;5248967;28;20520;-53
2022/04/28 01:34:06;;;;;;;8.07;7.07;;;8.10;99.90;;;;;;5244635;28;20174;-52
2022/04/28 01:36:37;;;;;;;15.93;8.17;;;8.10;99.90;;;;;;5248641;28;20545;-54
2022/04/28 01:39:11;;;;;;;11.40;8.80;;;8.10;99.90;;;;;;5248274;28;20202;-55
2022/04/28 01:41:42;;;;;;;10.93;8.23;;;8.20;99.90;;;;;;5245419;28;20220;-53
2022/04/28 01:44:13;;;;;;;15.87;8.37;;;8.20;99.90;;;;;;5240554;28;20827;-53
2022/04/28 01:46:44;;;;;;;14.17;8.33;;;8.30;99.90;;;;;;5248442;28;20556;-52
2022/04/28 01:49:15;;;;;;;10.80;7.17;;;8.30;99.90;;;;;;5244566;28;20212;-54
2022/04/28 01:57:26;;;;;;;8.47;6.57;;;8.30;99.90;;;;;;5230280;28;20901;-54
2022/04/28 01:59:59;;;;;;;7.03;6.30;;;8.30;99.90;;;;;;5232390;28;20482;-54
2022/04/28 02:02:31;;;;;;;7.40;6.47;;;8.30;99.90;;;;;;5234794;28;20593;-54
2022/04/28 02:05:06;;;;;;;11.00;7.97;;;8.30;99.90;;;;;;5230209;28;20476;-56
2022/04/28 02:07:37;;;;;;;8.03;7.23;;;8.30;99.90;;;;;;5233271;28;20440;-55
2022/04/28 02:10:08;;;;;;;10.73;6.90;;;8.30;99.90;;;;;;5232895;28;20510;-55
2022/04/28 02:12:39;;;;;;;8.20;7.40;;;8.30;99.90;;;;;;5239818;28;20206;-55
2022/04/28 02:15:10;;;;;;;10.90;7.17;;;8.30;99.90;;;;;;5238495;28;20474;-55
2022/04/28 02:17:40;;;;;;;8.87;7.80;;;8.20;99.90;;;;;;5228388;28;20179;-55
2022/04/28 02:20:11;;;;;;;9.93;7.10;;;8.30;99.90;;;;;;5243527;28;20489;-56
2022/04/28 02:22:42;;;;;;;11.43;8.23;;;8.20;99.90;;;;;;5242109;28;20712;-53
2022/04/28 02:25:12;;;;;;;11.80;7.27;;;8.20;99.90;;;;;;5237449;28;20275;-54
2022/04/28 02:27:43;;;;;;;11.87;7.37;;;8.20;99.90;;;;;;5233431;28;20179;-54
2022/04/28 02:30:13;;;;;;;8.80;7.93;;;8.20;99.90;;;;;;5231014;28;20254;-56
2022/04/28 02:35:33;;;;;;;10.00;7.67;;;8.10;99.90;;;;;;5233272;28;20642;-53
2022/04/28 02:38:03;;;;;;;12.17;7.73;;;8.00;99.90;;;;;;5244056;28;20436;-56
2022/04/28 02:40:34;;;;;;;11.90;7.50;;;8.00;99.90;;;;;;5241762;28;20277;-55
2022/04/28 02:43:04;;;;;;;9.50;6.73;;;8.00;99.90;;;;;;5238679;28;20328;-55
2022/04/28 02:45:35;;;;;;;11.20;7.60;;;8.00;99.90;;;;;;5241294;28;20206;-54
2022/04/28 02:48:06;;;;;;;9.07;7.53;;;7.90;99.90;;;;;;5239241;28;20178;-55
2022/04/28 02:50:36;;;;;;;8.50;6.63;;;7.80;99.90;;;;;;5233758;28;20187;-55
2022/04/28 02:53:07;;;;;;;12.43;7.67;;;7.70;99.90;;;;;;5231016;28;20214;-53
2022/04/28 02:55:39;;;;;;;7.43;6.70;;;7.70;99.90;;;;;;5234902;28;20287;-54
2022/04/28 02:58:10;;;;;;;8.23;6.50;;;7.70;99.90;;;;;;5227838;28;20670;-53
2022/04/28 03:00:40;;;;;;;10.23;7.53;;;7.60;99.90;;;;;;5237597;28;20433;-55
2022/04/28 03:03:11;;;;;;;8.30;7.17;;;7.60;99.90;;;;;;5243772;28;20542;-58
2022/04/28 03:11:20;;;;;;;8.97;6.30;;;7.50;99.90;;;;;;5244039;28;20800;-60
2022/04/28 03:13:51;;;;;;;12.17;7.20;;;7.50;99.90;;;;;;5243518;28;20428;-54
2022/04/28 03:16:21;;;;;;;12.03;7.03;;;7.50;99.90;;;;;;5237470;28;20261;-56
2022/04/28 03:18:51;;;;;;;8.00;6.77;;;7.40;99.90;;;;;;5239088;28;20190;-54
2022/04/28 03:21:22;;;;;;;11.87;7.80;;;7.40;99.90;;;;;;5238312;28;20226;-57
2022/04/28 03:23:53;;;;;;;7.70;6.90;;;7.40;99.90;;;;;;5250868;28;20178;-55
2022/04/28 03:26:23;;;;;;;10.40;7.50;;;7.30;99.90;;;;;;5235552;28;20203;-55
2022/04/28 03:28:55;;;;;;;7.90;6.90;;;7.40;99.90;;;;;;5240745;28;20293;-54
2022/04/28 03:31:26;;;;;;;11.47;7.67;;;7.40;99.90;;;;;;5241385;28;20175;-55
2022/04/28 03:33:56;;;;;;;10.40;7.20;;;7.30;99.90;;;;;;5231841;28;20436;-54
2022/04/28 03:39:16;;;;;;;8.23;7.43;;;7.20;99.90;;;;;;5232607;28;20175;-55
2022/04/28 03:41:47;;;;;;;7.57;6.43;;;7.20;99.90;;;;;;5231072;28;20452;-55
2022/04/28 03:44:17;;;;;;;8.70;6.50;;;7.20;99.90;;;;;;5242854;28;20182;-55
2022/04/28 03:46:48;;;;;;;9.80;6.67;;;7.20;99.90;;;;;;5223835;28;20304;-54
2022/04/28 03:49:18;;;;;;;10.30;6.90;;;7.20;99.90;;;;;;5239618;28;20202;-56
2022/04/28 03:51:49;;;;;;;8.73;7.30;;;7.20;99.90;;;;;;5243526;28;20262;-53
2022/04/28 03:54:19;;;;;;;10.03;7.30;;;7.20;99.90;;;;;;5243923;28;20586;-53
2022/04/28 03:56:50;;;;;;;7.70;6.87;;;7.30;99.90;;;;;;5234459;28;20273;-55
2022/04/28 03:59:20;;;;;;;9.97;6.90;;;7.30;99.90;;;;;;5231877;28;20206;-56
2022/04/28 04:01:52;;;;;;;12.03;7.00;;;7.30;99.90;;;;;;5242441;28;20246;-53
2022/04/28 04:04:22;;;;;;;9.70;7.40;;;7.40;99.90;;;;;;5235907;28;20171;-56
2022/04/28 04:06:53;;;;;;;7.20;6.60;;;7.40;99.90;;;;;;5237393;28;20684;-56
2022/04/28 04:09:23;;;;;;;10.23;6.70;;;7.50;99.90;;;;;;5234303;28;20744;-54
2022/04/28 04:11:54;;;;;;;10.67;7.40;;;7.50;99.90;;;;;;5224847;28;20307;-54
2022/04/28 04:14:24;;;;;;;7.67;6.30;;;7.60;99.90;;;;;;5238778;28;20175;-56
2022/04/28 04:16:55;;;;;;;9.90;6.47;;;7.60;99.90;;;;;;5241106;28;20281;-57
2022/04/28 04:19:25;;;;;;;9.30;7.60;;;7.60;99.90;;;;;;5242126;28;20191;-56
2022/04/28 04:21:58;;;;;;;7.33;6.60;;;7.70;99.90;;;;;;5245329;28;20214;-53
2022/04/28 04:24:30;;;;;;;10.13;7.57;;;7.70;99.90;;;;;;5248357;28;20182;-55
2022/04/28 04:27:00;;;;;;;11.13;7.03;;;7.70;99.90;;;;;;5237125;28;20476;-56
2022/04/28 04:29:31;;;;;;;8.00;6.90;;;7.80;99.90;;;;;;5234411;28;20460;-56
2022/04/28 04:32:17;;;;;;;9.03;7.40;;;7.80;99.90;;;;;;5246172;28;20221;-54
2022/04/28 04:34:50;;;;;;;8.60;6.80;;;8.00;99.90;;;;;;5235205;28;20193;-55
2022/04/28 04:37:21;;;;;;;9.37;7.23;;;8.30;99.90;;;;;;5242046;28;20804;-54
2022/04/28 04:39:53;;;;;;;7.93;7.10;;;8.60;99.90;;;;;;5246378;28;20446;-55
2022/04/28 04:42:23;;;;;;;11.80;6.77;;;8.80;99.90;;;;;;5247869;28;20455;-57
2022/04/28 04:44:54;;;;;;;8.63;6.30;;;8.90;99.90;;;;;;5243882;28;20919;-54
2022/04/28 04:47:24;;;;;;;13.70;8.00;;;9.10;99.90;;;;;;5234923;28;20190;-54
2022/04/28 04:49:55;;;;;;;7.90;5.80;;;9.40;99.90;;;;;;5246339;28;20178;-56
2022/04/28 04:52:25;;;;;;;15.63;7.57;;;9.80;99.90;;;;;;5243932;28;20289;-55
2022/04/28 04:54:56;;;;;;;9.80;7.60;;;10.20;99.90;;;;;;5241176;28;20178;-55
2022/04/28 04:57:26;;;;;;;10.97;8.13;;;10.70;99.90;;;;;;5241874;28;20620;-56
2022/04/28 04:59:58;;;;;;;10.50;6.53;;;11.40;99.90;;;;;;5241300;28;20178;-55
2022/04/28 05:02:28;;;;;;;16.43;8.63;;;11.80;96.90;;;;;;5218046;28;20206;-54
2022/04/28 05:04:59;;;;;;;10.53;7.50;;;11.70;94.60;;;;;;5245030;28;20437;-55
2022/04/28 05:07:30;;;;;;;8.47;7.43;;;11.40;93.70;;;;;;5239747;28;20209;-54
2022/04/28 05:10:01;;;;;;;8.87;7.80;;;11.00;95.30;;;;;;5243892;28;20175;-55
2022/04/28 05:12:31;;;;;;;14.00;7.27;;;10.80;96.60;;;;;;5252659;28;20452;-55
2022/04/28 05:15:03;;;;;;;25.20;15.87;;;10.80;97.30;;;;;;5249192;28;20182;-57
2022/04/28 05:17:35;;;;;;;10.70;8.13;;;10.90;97.00;;;;;;5238241;28;20183;-54
2022/04/28 05:20:06;;;;;;;7.57;6.53;;;11.20;96.80;;;;;;5246990;28;20539;-55
2022/04/28 05:22:37;;;;;;;9.20;6.87;;;11.60;95.80;;;;;;5246469;28;20460;-56
2022/04/28 05:25:08;;;;;;;8.90;6.80;;;12.00;92.50;;;;;;5236197;28;20951;-53
2022/04/28 05:27:38;;;;;;;9.90;7.10;;;11.90;90.90;;;;;;5240731;28;20182;-54
2022/04/28 05:30:09;;;;;;;9.30;7.27;;;11.70;90.50;;;;;;5244182;28;20545;-53
2022/04/28 05:32:40;;;;;;;7.00;5.90;;;11.60;90.20;;;;;;5241244;28;20226;-54
2022/04/28 05:35:10;;;;;;;9.47;6.53;;;11.60;90.10;;;;;;5246898;28;20440;-53
2022/04/28 05:37:41;;;;;;;11.63;5.93;;;11.70;89.80;;;;;;5247418;28;20190;-55
2022/04/28 05:40:13;;;;;;;8.63;6.67;;;11.70;88.60;;;;;;5249188;28;20651;-56
2022/04/28 05:45:43;;;;;;;11.67;8.37;;;11.30;90.10;;;;;;5244927;28;20539;-56
2022/04/28 05:48:15;;;;;;;9.70;7.60;;;11.30;90.90;;;;;;5228052;28;20445;-55
2022/04/28 05:50:46;;;;;;;11.53;6.77;;;11.40;91.10;;;;;;5242191;28;21085;-55
2022/04/28 05:53:17;;;;;;;10.23;7.47;;;11.50;90.80;;;;;;5246010;28;20495;-55
2022/04/28 05:55:47;;;;;;;7.03;6.33;;;11.50;89.90;;;;;;5246515;28;20470;-55
2022/04/28 05:58:18;;;;;;;10.90;6.70;;;11.50;88.50;;;;;;5240440;28;20186;-55
2022/04/28 06:00:49;;;;;;;8.77;7.07;;;11.70;88.40;;;;;;5244219;28;20183;-56
2022/04/28 06:03:19;;;;;;;9.73;7.17;;;11.60;87.10;;;;;;5230644;28;20208;-54
2022/04/28 06:05:50;;;;;;;10.93;6.30;;;11.70;86.40;;;;;;5247700;28;20205;-55
2022/04/28 06:08:21;;;;;;;13.70;7.57;;;11.70;86.20;;;;;;5242548;28;20320;-55
2022/04/28 06:10:52;;;;;;;9.27;6.43;;;11.60;86.20;;;;;;5231661;28;20182;-55
2022/04/28 06:13:22;;;;;;;11.73;6.97;;;11.70;87.30;;;;;;5238693;28;20966;-55
2022/04/28 06:15:53;;;;;;;17.00;7.33;;;11.80;88.30;;;;;;5246675;28;20178;-53
2022/04/28 06:18:24;;;;;;;9.40;6.40;;;11.80;88.00;;;;;;5241810;28;20201;-55
2022/04/28 06:20:54;;;;;;;12.33;7.90;;;11.80;88.70;;;;;;5241584;28;20194;-56
2022/04/28 06:23:25;;;;;;;9.90;7.63;;;11.80;89.40;;;;;;5247460;28;20463;-55
2022/04/28 06:25:55;;;;;;;11.53;7.97;;;11.90;90.00;;;;;;5227759;28;20202;-56
2022/04/28 06:28:26;;;;;;;11.87;8.00;;;11.90;90.00;;;;;;5248134;28;20190;-56
2022/04/28 06:30:57;;;;;;;12.73;8.80;;;11.80;90.50;;;;;;5243754;28;20205;-55
2022/04/28 06:33:27;;;;;;;11.00;8.40;;;11.80;90.90;;;;;;5246951;28;20547;-54
2022/04/28 06:35:58;;;;;;;12.33;9.30;;;11.90;91.70;;;;;;5242953;28;20222;-55
2022/04/28 06:38:29;;;;;;;16.00;8.27;;;11.80;92.70;;;;;;5247618;28;20182;-54
2022/04/28 06:40:59;;;;;;;11.90;7.70;;;11.70;94.00;;;;;;5247262;28;20206;-57
2022/04/28 06:43:30;;;;;;;14.93;9.33;;;11.80;94.70;;;;;;5263575;28;20202;-56
2022/04/28 06:46:12;;;;;;;13.57;8.60;;;12.10;94.80;;;;;;5249270;28;20218;-57
2022/04/28 06:48:43;;;;;;;8.80;7.40;;;12.30;94.40;;;;;;5247622;28;20190;-55
2022/04/28 06:51:14;;;;;;;10.37;7.87;;;12.70;93.60;;;;;;5243542;28;20812;-56
2022/04/28 06:53:45;;;;;;;9.93;7.30;;;13.10;92.20;;;;;;5242243;28;20265;-55
2022/04/28 06:56:16;;;;;;;43.23;10.33;;;13.70;90.30;;;;;;5245786;28;20467;-55
2022/04/28 06:58:47;;;;;;;11.37;7.13;;;14.10;84.70;;;;;;5245680;28;20618;-55
2022/04/28 07:01:17;;;;;;;17.73;7.30;;;14.40;81.90;;;;;;5243977;28;20447;-58
2022/04/28 07:03:48;;;;;;;12.87;8.43;;;15.20;74.00;;;;;;5246942;28;20296;-56
2022/04/28 07:06:19;;;;;;;13.40;7.10;;;15.30;67.00;;;;;;5246382;28;20598;-55
2022/04/28 07:08:49;;;;;;;11.43;6.93;;;15.60;65.30;;;;;;5242938;28;20201;-56
2022/04/28 07:11:20;;;;;;;10.37;6.13;;;15.90;60.90;;;;;;5239851;28;20191;-55
2022/04/28 07:13:51;;;;;;;13.10;6.40;;;16.00;59.80;;;;;;5249480;28;20212;-57
2022/04/28 07:16:21;;;;;;;9.23;5.20;;;16.40;58.70;;;;;;5241690;28;20220;-55
2022/04/28 07:18:52;;;;;;;7.07;5.13;;;16.90;56.80;;;;;;5243642;28;20192;-55
2022/04/28 07:21:23;;;;;;;6.80;5.30;;;17.30;54.70;;;;;;5242424;28;20194;-56
2022/04/28 07:23:54;;;;;;;9.80;5.13;;;17.40;52.20;;;;;;5244362;28;20243;-56
2022/04/28 07:26:24;;;;;;;15.07;5.20;;;17.30;51.70;;;;;;5239039;28;20199;-54
2022/04/28 07:28:55;;;;;;;9.00;4.40;;;17.20;51.30;;;;;;5236542;28;20175;-57
2022/04/28 07:31:26;;;;;;;10.33;5.60;;;17.10;52.40;;;;;;5229991;28;20197;-56
2022/04/28 07:33:58;;;;;;;7.03;5.30;;;17.00;51.60;;;;;;5238619;28;20178;-57
2022/04/28 07:36:29;;;;;;;7.83;4.47;;;17.20;52.40;;;;;;5239683;28;20884;-55
2022/04/28 07:39:00;;;;;;;10.33;5.53;;;18.90;50.50;;;;;;5235760;28;20559;-55
2022/04/28 07:41:30;;;;;;;6.47;3.97;;;21.30;44.90;;;;;;5240808;28;20535;-55
2022/04/28 07:44:00;;;;;;;11.73;4.50;;;23.20;39.50;;;;;;5237915;28;20197;-58
2022/04/28 07:46:31;;;;;;;10.00;3.80;;;23.10;36.00;;;;;;5229880;28;20314;-56
2022/04/28 07:49:02;;;;;;;10.13;4.23;;;21.80;37.50;;;;;;5243605;28;20235;-56
2022/04/28 07:54:05;;;;;;;6.20;4.00;;;20.20;40.00;;;;;;5262900;23;20230;-47
2022/04/28 07:56:36;;;;;;;9.10;4.43;;;20.00;40.80;;;;;;5241520;28;20459;-48
2022/04/28 07:59:09;;;;;;;7.10;4.50;;;19.50;41.10;;;;;;5248688;28;20643;-48
2022/04/28 08:01:40;;;;;;;9.93;4.63;;;20.10;41.60;;;;;;5247198;28;20265;-49
2022/04/28 08:04:10;;;;;;;10.90;4.60;;;22.30;39.20;;;;;;5261626;28;20421;-48
2022/04/28 08:06:41;;;;;;;8.20;3.93;;;24.50;35.30;;;;;;5262108;28;20217;-49
2022/04/28 08:09:11;;;;;;;5.50;4.30;;;25.60;33.80;;;;;;5259730;28;20185;-49
2022/04/28 08:11:42;;;;;;;8.87;3.83;;;25.40;31.90;;;;;;5254608;28;20609;-47
2022/04/28 08:14:13;;;;;;;4.27;3.50;;;25.70;31.80;;;;;;5259639;28;20174;-47
2022/04/28 08:16:46;;;;;;;5.50;4.17;;;26.30;31.30;;;;;;5259821;28;20190;-48
2022/04/28 08:19:18;;;;;;;4.37;3.97;;;26.80;30.00;;;;;;5269976;28;20654;-52
2022/04/28 08:21:49;;;;;;;8.07;4.63;;;27.00;28.70;;;;;;5261538;28;20433;-46
2022/04/28 08:24:20;;;;;;;5.60;3.37;;;27.00;29.00;;;;;;5258770;28;20439;-48
2022/04/28 08:26:52;;;;;;;5.97;4.10;;;27.50;28.50;;;;;;5264447;28;20609;-48
2022/04/28 08:29:23;;;;;;;9.00;4.17;;;27.80;27.90;;;;;;5263415;28;20749;-47
2022/04/28 08:31:54;;;;;;;6.67;4.37;;;27.60;28.20;;;;;;5267615;28;20498;-48
2022/04/28 08:34:25;;;;;;;6.10;4.40;;;27.30;28.60;;;;;;5260431;28;20213;-53
2022/04/28 08:36:55;;;;;;;7.23;4.47;;;26.10;29.10;;;;;;5256141;28;20188;-48
2022/04/28 08:39:26;;;;;;;9.97;5.53;;;25.90;29.60;;;;;;5254255;28;20666;-48
2022/04/28 08:41:59;;;;;;;7.80;4.43;;;25.00;30.60;;;;;;5257166;28;20669;-49
2022/04/28 08:44:30;;;;;;;9.23;5.77;;;24.30;31.40;;;;;;5252683;28;20182;-51
2022/04/28 08:47:00;;;;;;;7.13;4.40;;;23.80;31.60;;;;;;5254996;28;20482;-48
2022/04/28 08:49:32;;;;;;;8.33;4.37;;;22.70;32.40;;;;;;5256505;28;20217;-48
2022/04/28 08:52:04;;;;;;;5.80;4.40;;;22.20;33.90;;;;;;5255949;28;20728;-48
2022/04/28 08:54:36;;;;;;;6.87;5.00;;;21.70;34.10;;;;;;5257778;28;20476;-47
2022/04/28 08:57:06;;;;;;;7.50;4.63;;;20.50;35.20;;;;;;5247035;28;20997;-47
2022/04/28 08:59:37;;;;;;;5.73;4.97;;;20.10;36.30;;;;;;5256719;28;20612;-49
2022/04/28 09:02:11;;;;;;;9.60;5.60;;;19.60;36.70;;;;;;5253268;28;20198;-48
2022/04/28 09:04:41;;;;;;;11.63;5.00;;;19.10;37.50;;;;;;5252330;28;21502;-47
2022/04/28 09:07:12;;;;;;;11.80;6.47;;;19.00;38.30;;;;;;5254408;28;20470;-47
2022/04/28 09:09:42;;;;;;;6.80;5.27;;;18.80;38.30;;;;;;5265953;28;20541;-48
2022/04/28 09:12:13;;;;;;;18.70;5.50;;;18.40;38.50;;;;;;5262563;28;20578;-47
2022/04/28 09:14:43;;;;;;;7.70;5.13;;;17.90;39.30;;;;;;5265056;28;20262;-49
2022/04/28 09:17:14;;;;;;;5.73;4.53;;;17.70;40.60;;;;;;5254292;28;20184;-49
2022/04/28 09:19:45;;;;;;;5.87;4.80;;;17.80;40.50;;;;;;5264560;28;20240;-48
2022/04/28 09:22:16;;;;;;;11.10;5.60;;;17.90;40.50;;;;;;5262035;28;20269;-47
2022/04/28 09:24:46;;;;;;;6.70;4.13;;;17.90;40.40;;;;;;5261572;28;20173;-47
2022/04/28 09:27:21;;;;;;;7.63;4.50;;;17.60;40.10;;;;;;5260673;28;20205;-48
2022/04/28 09:29:51;;;;;;;20.60;5.73;;;17.40;40.40;;;;;;5264855;28;20273;-48
2022/04/28 09:32:25;;;;;;;5.30;4.60;;;17.50;40.60;;;;;;5258008;28;20542;-47
2022/04/28 09:35:06;;;;;;;6.13;3.80;;;17.70;40.40;;;;;;5264899;28;20479;-47
2022/04/28 09:37:40;;;;;;;5.60;4.43;;;17.90;40.20;;;;;;5266750;28;20462;-50
2022/04/28 09:43:02;;;;;;;7.10;5.37;;;18.50;38.40;;;;;;5262416;28;20458;-47
2022/04/28 09:45:34;;;;;;;8.00;5.13;;;18.30;38.30;;;;;;5258717;28;20526;-48
2022/04/28 09:48:05;;;;;;;7.83;6.87;;;17.90;38.90;;;;;;5265124;28;20492;-46
2022/04/28 09:50:39;;;;;;;5.00;4.50;;;17.70;39.30;;;;;;5259535;28;20515;-47
2022/04/28 09:53:11;;;;;;;6.80;5.53;;;17.90;39.40;;;;;;5258943;28;20648;-49
2022/04/28 09:55:44;;;;;;;9.53;5.10;;;18.00;39.20;;;;;;5252562;28;20436;-50
2022/04/28 09:58:15;;;;;;;9.30;4.87;;;17.90;39.40;;;;;;5260193;28;20965;-52
2022/04/28 10:00:46;;;;;;;4.77;3.97;;;17.60;39.30;;;;;;5260190;28;20462;-50
2022/04/28 10:03:16;;;;;;;6.43;3.87;;;17.50;39.90;;;;;;5262254;28;20880;-49
2022/04/28 10:05:48;;;;;;;6.93;4.83;;;17.40;40.00;;;;;;5258961;28;20201;-50
2022/04/28 10:08:21;;;;;;;12.13;7.17;;;17.30;40.10;;;;;;5252643;28;20224;-48
2022/04/28 10:10:57;;;;;;;55.10;20.97;;;17.10;40.60;;;;;;5258168;28;20768;-52
2022/04/28 10:13:29;;;;;;;9.10;6.97;;;16.90;40.50;;;;;;5259324;28;20470;-49
2022/04/28 10:16:05;;;;;;;9.70;7.50;;;16.80;40.50;;;;;;5262034;28;21643;-48
2022/04/28 10:19:00;;;;;;;7.07;4.50;;;16.90;40.60;;;;;;5267882;28;20454;-50
2022/04/28 10:21:39;;;;;;;12.07;5.20;;;17.20;40.00;;;;;;5255176;28;20531;-50
2022/04/28 10:33:10;;;;;;;5.57;5.03;;;17.30;39.50;;;;;;5252962;28;20744;-51
2022/04/28 10:35:50;;;;;;;8.93;4.80;;;17.10;40.00;;;;;;5252641;28;20436;-51
2022/04/28 10:38:22;;;;;;;15.27;9.27;;;17.10;40.10;;;;;;5254433;28;20846;-52
2022/04/28 10:41:01;;;;;;;6.50;5.27;;;17.10;40.00;;;;;;5248421;28;20486;-51
2022/04/28 10:43:32;;;;;;;13.70;5.87;;;16.80;39.90;;;;;;5263439;28;20459;-50
2022/04/28 10:46:08;;;;;;;4.50;4.10;;;17.00;40.40;;;;;;5264127;28;20459;-49
2022/04/28 10:48:42;;;;;;;7.73;4.90;;;17.30;39.80;;;;;;5262302;28;20181;-49
2022/04/28 10:51:20;;;;;;;30.23;18.93;;;17.60;39.20;;;;;;5257163;28;20456;-49
2022/04/28 10:54:01;;;;;;;24.50;17.13;;;18.00;38.30;;;;;;5256716;28;20463;-49
2022/04/28 10:56:44;;;;;;;7.13;5.80;;;18.40;37.40;;;;;;5272330;27;20496;-50
2022/04/28 10:59:27;;;;;;;7.57;4.93;;;18.50;37.00;;;;;;5263750;28;20431;-50
2022/04/28 11:02:19;;;;;;;16.20;8.03;;;18.40;36.60;;;;;;5262598;28;22054;-49
2022/04/28 11:04:52;;;;;;;5.23;4.83;;;18.10;37.10;;;;;;5248574;28;20448;-49
2022/04/28 11:07:28;;;;;;;3.90;3.60;;;17.80;37.20;;;;;;5260258;28;20483;-48
2022/04/28 11:10:01;;;;;;;6.47;3.97;;;17.80;37.90;;;;;;5260232;28;20431;-49
2022/04/28 11:12:36;;;;;;;6.07;4.67;;;17.90;37.60;;;;;;5259490;28;20444;-48
2022/04/28 11:15:13;;;;;;;8.37;4.07;;;17.80;37.40;;;;;;5258036;28;20431;-47
2022/04/28 11:17:44;;;;;;;9.43;4.60;;;17.60;37.60;;;;;;5260851;28;20503;-48
2022/04/28 11:20:19;;;;;;;3.93;3.40;;;17.90;38.00;;;;;;5255168;28;20509;-48
2022/04/28 11:22:51;;;;;;;5.90;3.80;;;18.00;37.50;;;;;;5256873;28;20282;-50
2022/04/28 11:25:22;;;;;;;6.00;4.20;;;18.10;38.30;;;;;;5269052;28;20514;-48
2022/04/28 11:27:55;;;;;;;3.87;3.57;;;18.30;37.60;;;;;;5261708;28;20998;-47
2022/04/28 11:30:26;;;;;;;10.43;4.77;;;18.50;37.50;;;;;;5258572;28;20648;-49
2022/04/28 11:32:58;;;;;;;11.23;4.83;;;18.20;37.70;;;;;;5253877;28;20541;-47
2022/04/28 11:35:40;;;;;;;5.53;4.07;;;18.10;38.10;;;;;;5255269;28;20185;-50
2022/04/28 11:38:11;;;;;;;6.53;3.90;;;17.90;38.00;;;;;;5249442;28;20939;-48
2022/04/28 11:40:44;;;;;;;6.27;4.93;;;17.80;38.30;;;;;;5257283;28;20876;-48
2022/04/28 11:43:15;;;;;;;9.23;4.03;;;17.60;38.70;;;;;;5264613;28;20463;-46
2022/04/28 11:45:47;;;;;;;7.53;4.30;;;17.50;39.00;;;;;;5260601;28;20466;-51
2022/04/28 11:48:20;;;;;;;4.50;4.07;;;17.50;38.90;;;;;;5265558;28;20441;-51
2022/04/28 11:50:51;;;;;;;4.00;3.70;;;17.40;38.70;;;;;;5262658;28;20467;-51
2022/04/28 11:53:21;;;;;;;15.07;5.57;;;17.40;38.80;;;;;;5262664;28;20560;-48
2022/04/28 11:55:55;;;;;;;17.43;9.30;;;17.80;38.30;;;;;;5255413;28;20217;-52
2022/04/28 11:58:35;;;;;;;7.70;4.40;;;17.90;37.40;;;;;;5262862;28;21891;-47
2022/04/28 12:01:05;;;;;;;8.10;4.80;;;18.10;37.10;;;;;;5264569;28;20919;-45
2022/04/28 12:03:36;;;;;;;11.73;4.13;;;18.30;36.80;;;;;;5250724;28;20516;-51
2022/04/28 12:06:07;;;;;;;6.90;5.20;;;18.50;36.70;;;;;;5259951;28;20205;-48
2022/04/28 12:08:39;;;;;;;18.97;10.63;;;18.90;36.60;;;;;;5263906;28;20177;-48
2022/04/28 12:14:45;;;;;;;8.23;5.33;;;19.10;35.70;;;;;;5260655;28;20512;-46
2022/04/28 12:19:49;;;;;;;9.93;3.60;;;18.40;36.40;;;;;;5262284;28;20431;-45
2022/04/28 12:22:27;;;;;;;5.20;3.37;;;18.30;36.60;;;;;;5259420;28;20459;-46
2022/04/28 12:25:06;;;;;;;5.40;3.23;;;18.20;36.90;;;;;;5257766;28;20500;-46
2022/04/28 12:27:52;;;;;;;21.13;4.73;;;18.20;37.00;;;;;;5258947;28;20462;-47
2022/04/28 12:30:23;;;;;;;8.10;3.63;;;18.00;37.30;;;;;;5260936;28;20442;-49
2022/04/28 12:32:54;;;;;;;7.13;3.33;;;17.70;37.70;;;;;;5258631;28;20452;-49
2022/04/28 12:35:32;;;;;;;3.57;3.27;;;17.50;38.20;;;;;;5260040;28;20719;-46
2022/04/28 12:38:08;;;;;;;4.67;4.10;;;17.30;38.30;;;;;;5261705;28;20444;-60
2022/04/28 12:40:42;;;;;;;5.60;3.20;;;17.20;39.20;;;;;;5260810;28;20462;-49
2022/04/28 12:43:33;;;;;;;3.57;3.07;;;17.10;38.80;;;;;;5254735;28;20973;-50
2022/04/28 12:46:05;;;;;;;7.10;3.10;;;17.00;38.50;;;;;;5260171;28;20867;-46
2022/04/28 12:48:37;;;;;;;15.27;6.33;;;17.10;38.30;;;;;;5257116;28;20439;-51
2022/04/28 12:51:13;;;;;;;14.27;3.70;;;17.20;38.20;;;;;;5266374;28;20815;-46
2022/04/28 12:53:51;;;;;;;3.70;2.90;;;17.30;37.70;;;;;;5264207;28;20467;-46
2022/04/28 12:56:30;;;;;;;5.63;3.50;;;17.40;37.50;;;;;;5258717;28;20440;-46
2022/04/28 12:59:04;;;;;;;4.03;3.70;;;17.50;36.80;;;;;;5271651;28;20521;-52
2022/04/28 13:01:37;;;;;;;9.80;4.80;;;17.50;37.10;;;;;;5263949;28;20938;-49
2022/04/28 13:04:22;;;;;;;7.20;4.10;;;17.50;37.30;;;;;;5264239;28;20440;-50
2022/04/28 13:06:53;;;;;;;8.37;3.33;;;17.50;37.50;;;;;;5251598;28;20510;-47
2022/04/28 13:09:24;;;;;;;10.47;3.80;;;17.50;37.70;;;;;;5269815;28;20884;-51
2022/04/28 13:11:55;;;;;;;3.20;2.73;;;17.40;37.80;;;;;;5251632;28;20442;-49
2022/04/28 13:14:25;;;;;;;8.20;3.13;;;17.30;38.10;;;;;;5256208;28;20181;-47
2022/04/28 13:16:56;;;;;;;8.90;3.97;;;17.20;38.00;;;;;;5262455;28;20235;-51
2022/04/28 13:19:27;;;;;;;5.73;4.13;;;17.10;38.30;;;;;;5264671;28;20645;-50
2022/04/28 13:21:57;;;;;;;20.23;8.47;;;16.90;38.50;;;;;;5263909;28;20608;-48
2022/04/28 13:24:28;;;;;;;10.20;3.70;;;16.90;38.70;;;;;;5257164;28;20280;-48
2022/04/28 13:26:59;;;;;;;3.93;3.47;;;16.90;38.60;;;;;;5266964;28;20746;-47
2022/04/28 13:29:30;;;;;;;6.00;3.33;;;16.90;38.20;;;;;;5260582;28;20522;-48
2022/04/28 13:32:00;;;;;;;11.13;3.80;;;16.70;38.40;;;;;;5264259;28;20242;-50
2022/04/28 13:34:31;;;;;;;8.43;4.00;;;16.60;38.60;;;;;;5270647;28;20170;-48
2022/04/28 13:37:02;;;;;;;3.70;3.40;;;16.60;38.80;;;;;;5268628;28;20239;-47
2022/04/28 13:39:33;;;;;;;3.43;3.13;;;16.50;38.80;;;;;;5264594;28;20656;-48
2022/04/28 13:42:04;;;;;;;5.13;2.93;;;16.40;38.60;;;;;;5265342;28;20468;-47
2022/04/28 13:44:35;;;;;;;9.80;4.17;;;16.40;38.70;;;;;;5259846;28;20962;-49
2022/04/28 13:47:06;;;;;;;3.90;3.27;;;16.40;38.60;;;;;;5270707;28;20218;-48
2022/04/28 13:49:37;;;;;;;3.47;3.13;;;16.40;37.90;;;;;;5262028;28;20181;-52
2022/04/28 13:52:09;;;;;;;4.37;3.50;;;16.40;37.60;;;;;;5277231;22;20459;-57